Menu       Home   X °F

Select another period ( hide this area )

Units Period Custom range Directly to
Metric English Both
Daily Weekly Monthly Yearly
use both date-selectors for a custom range
previous Day
With this date
Daily Summary for Tuesday 06 June 2023
Time Temp. ( °F ) Dew pt. ( °F ) Wind ( mph ) From Gust ( mph ) Pressure ( in ) Humid.( % ) Rainrate ( in )
High81.0 70.0 3.0 SSE ( 108/126 ) 3.0 29.94 99 0.07
Average70.7 65.2 0.5 Calm #126/235 0.7 29.90 85 0.10
Low61.5 61.2 -   0.0 29.83 59 -
Daily Tabular details for Tuesday 06 June 2023
Time Temp. ( °F ) Dew pt. ( °F ) Wind ( mph ) From Gust ( mph ) Pressure ( in ) Humid.( % ) Rainrate ( in )
00:04 65.7 65.3   Calm   29.93 99 -
00:09 65.8 65.5   Calm   29.93 99 -
00:14 65.8 65.5   Calm   29.93 99 -
00:19 65.7 65.3   Calm   29.93 99 -
00:24 65.7 65.3   Calm   29.93 99 -
00:29 65.7 65.3   Calm   29.92 99 -
00:34 65.7 65.3 1.0 South 1.0 29.92 99 -
00:39 65.5 65.1   Calm 1.0 29.92 99 -
00:44 65.1 64.8   Calm   29.92 99 -
00:49 64.9 64.6   Calm 1.0 29.93 99 -
00:54 65.1 64.8 1.0 South 1.0 29.92 99 -
00:59 65.1 64.8   Calm   29.92 99 -
01:04 65.1 64.8   Calm   29.92 99 -
01:09 65.3 64.9   Calm   29.92 99 -
01:14 65.3 64.9 1.0 South 1.0 29.92 99 -
01:19 65.1 64.8 2.0 South 2.0 29.92 99 -
01:24 65.3 64.9   Calm   29.92 99 -
01:29 65.3 64.9   Calm 1.0 29.92 99 -
01:34 65.5 65.1   Calm 1.0 29.92 99 -
01:39 65.3 64.9   Calm   29.92 99 -
01:44 65.3 64.9   Calm   29.92 99 -
01:49 65.3 64.9   Calm   29.92 99 -
01:54 65.3 64.9   Calm 1.0 29.92 99 -
01:59 65.3 64.9 1.0 South 1.0 29.93 99 -
02:04 65.3 64.9 2.0 South 2.0 29.93 99 -
02:09 65.5 65.1 1.0 SSW 2.0 29.94 99 -
02:14 65.7 65.3 1.0 South 1.0 29.93 99 -
02:19 65.8 65.5 1.0 South 1.0 29.94 99 -
02:24 66.0 65.7 1.0 South 1.0 29.94 99 -
02:29 66.0 65.7 1.0 South 1.0 29.93 99 -
02:34 66.2 65.7 1.0 South 1.0 29.93 99 -
02:39 66.2 65.7   Calm 1.0 29.94 98 -
02:44 66.4 66.0   Calm   29.94 99 -
02:49 66.4 66.0 2.0 South 2.0 29.94 99 -
02:54 65.7 65.3 2.0 South 2.0 29.94 99 -
02:59 65.3 64.8 1.0 SSE 2.0 29.94 98 -
03:04 65.5 65.1 1.0 SSE 1.0 29.94 99 -
03:09 65.5 65.1 1.0 SSE 1.0 29.94 99 -
03:14 65.1 64.6 1.0 SSE 2.0 29.94 98 -
03:19 64.9 64.4   Calm 1.0 29.94 98 0.07
03:24 64.8 64.2 1.0 SSE 1.0 29.94 98 0.07
03:29 64.6 64.0 1.0 SSE 2.0 29.94 98 0.07
03:34 64.6 63.9 1.0 SSE 1.0 29.94 97 -
03:39 64.6 63.9   Calm 1.0 29.94 97 -
03:44 64.4 63.7   Calm 1.0 29.94 97 -
03:49 64.4 63.7   Calm   29.94 98 -
03:54 64.2 63.9   Calm   29.93 99 -
03:59 64.2 63.9 1.0 SSE 1.0 29.93 99 -
04:04 64.0 63.7   Calm 1.0 29.93 99 -
04:09 63.7 63.3   Calm   29.93 99 -
04:14 63.5 63.1   Calm   29.93 99 -
04:19 63.3 63.0   Calm   29.92 99 -
04:24 63.1 62.8   Calm   29.92 99 -
04:29 63.1 62.8   Calm   29.92 99 -
04:34 63.0 62.6 1.0 SSE 1.0 29.93 99 -
04:39 63.0 62.6   Calm   29.93 99 -
04:44 62.8 62.4   Calm   29.93 99 -
04:49 62.8 62.4 1.0 SSE 1.0 29.93 99 -
04:54 62.6 62.2   Calm   29.93 99 -
04:59 62.6 62.2   Calm   29.94 99 -
05:04 62.6 62.2 1.0 SSE 1.0 29.94 99 -
05:09 62.4 62.1   Calm   29.93 99 -
05:14 62.4 62.1   Calm   29.93 99 -
05:19 62.4 62.1   Calm   29.93 99 -
05:24 62.4 62.1   Calm   29.93 99 -
05:29 62.4 62.1   Calm   29.92 99 -
05:34 62.2 61.9   Calm   29.92 99 -
05:39 62.1 61.7   Calm   29.92 99 -
05:44 62.1 61.7   Calm   29.93 99 -
05:49 62.1 61.7   Calm   29.92 99 -
05:54 61.9 61.5   Calm   29.93 99 -
05:59 61.9 61.5 1.0 SSE 1.0 29.93 99 -
06:04 61.9 61.5 1.0 SSE 1.0 29.93 99 -
06:09 61.7 61.3   Calm 1.0 29.93 99 -
06:14 61.7 61.3   Calm 1.0 29.93 99 -
06:19 61.7 61.3   Calm   29.93 99 -
06:24 61.5 61.2   Calm   29.93 99 -
06:29 61.5 61.2   Calm   29.94 99 -
06:34 61.5 61.2   Calm   29.93 99 -
06:39 61.5 61.2   Calm   29.94 99 -
06:44 61.5 61.2   Calm   29.93 99 -
06:49 61.5 61.2   Calm   29.94 99 -
06:54 61.5 61.2   Calm   29.93 99 -
06:59 61.5 61.2   Calm   29.93 99 -
07:04 61.5 61.2   Calm   29.93 99 -
07:09 61.5 61.2   Calm   29.93 99 -
07:14 61.5 61.2   Calm   29.93 99 -
07:19 61.7 61.3   Calm   29.93 99 -
07:24 61.9 61.5   Calm   29.93 99 -
07:29 61.9 61.5   Calm   29.92 99 -
07:34 62.1 61.7   Calm   29.92 99 -
07:39 62.1 61.7   Calm   29.92 99 -
07:44 62.2 61.9   Calm   29.92 99 -
07:49 62.4 62.1   Calm   29.92 99 -
07:54 62.6 62.2   Calm   29.92 99 -
07:59 62.8 62.4   Calm   29.92 99 -
08:04 63.0 62.6 1.0 SSE 1.0 29.92 99 -
08:09 63.1 62.8   Calm 1.0 29.92 99 -
08:14 63.1 62.8   Calm   29.92 99 -
08:19 63.3 63.0   Calm   29.92 99 -
08:24 63.5 63.1   Calm   29.92 99 -
08:29 63.7 63.3   Calm   29.92 99 -
08:34 63.9 63.5   Calm   29.92 99 -
08:39 64.2 63.9   Calm   29.92 99 -
08:44 64.4 64.0   Calm   29.92 99 -
08:49 64.8 64.4   Calm   29.92 99 -
08:54 64.8 64.4   Calm   29.92 99 -
08:59 65.3 64.9   Calm 1.0 29.93 99 -
09:04 65.5 64.9   Calm 1.0 29.93 99 -
09:09 65.8 65.3 1.0 SSE 1.0 29.93 98 -
09:14 66.0 65.1   Calm 1.0 29.93 97 -
09:19 66.6 65.5   Calm   29.93 96 -
09:24 66.7 65.5 1.0 SSE 2.0 29.93 96 -
09:29 67.3 65.3   Calm   29.93 95 -
09:34 67.6 65.7 1.0 SSE 1.0 29.93 94 -
09:39 68.0 65.8 1.0 SSE 1.0 29.93 93 -
09:44 68.5 66.2   Calm   29.93 92 -
09:49 69.1 66.4   Calm 1.0 29.93 91 -
09:54 69.4 66.7 1.0 SSE 1.0 29.93 92 -
09:59 69.8 67.5   Calm   29.93 93 -
10:04 70.3 68.0   Calm   29.93 92 -
10:09 70.7 67.8   Calm   29.92 91 -
10:14 71.1 68.0   Calm   29.92 90 -
10:19 71.2 68.5   Calm   29.92 91 -
10:24 71.6 68.4   Calm   29.93 90 -
10:29 72.0 68.4   Calm   29.93 89 -
10:34 72.1 68.2   Calm   29.93 88 -
10:39 72.7 68.4   Calm   29.93 87 -
10:44 73.2 69.4 1.0 SSE 1.0 29.93 88 -
10:49 73.4 68.2   Calm 1.0 29.93 84 -
10:54 73.8 68.7   Calm   29.92 85 -
10:59 74.3 68.4   Calm   29.92 83 -
11:04 75.0 68.7 1.0 SSE 1.0 29.92 81 -
11:09 75.6 69.3   Calm 1.0 29.93 81 -
11:14 75.6 69.3 1.0 SSE 1.0 29.93 81 -
11:19 75.6 69.6 1.0 SSE 1.0 29.93 82 -
11:24 75.6 67.6   Calm 1.0 29.93 77 -
11:29 75.9 69.1 1.0 SSE 1.0 29.92 79 -
11:34 75.9 68.9 1.0 SSE 1.0 29.92 79 -
11:39 76.6 68.7 1.0 SSE 1.0 29.92 78 -
11:44 77.4 67.6 1.0 SSE 1.0 29.92 72 -
11:49 77.5 69.1   Calm 1.0 29.92 75 -
11:54 77.5 68.2 2.0 SSE 2.0 29.92 73 -
11:59 77.5 68.7 1.0 SSE 2.0 29.92 75 -
12:04 76.6 68.2 1.0 SSE 1.0 29.92 75 -
12:09 76.8 68.5   Calm 1.0 29.92 76 -
12:14 76.5 68.7   Calm 1.0 29.92 78 -
12:19 76.3 68.9 2.0 SSE 2.0 29.92 79 -
12:24 77.2 68.9 2.0 SSE 2.0 29.92 78 -
12:29 78.1 68.9 1.0 SSE 1.0 29.92 75 -
12:34 78.6 69.8 1.0 SSE 1.0 29.92 75 -
12:39 78.6 69.6 1.0 SSE 2.0 29.91 74 -
12:44 79.5 69.1 1.0 SSE 1.0 29.91 73 -
12:49 80.1 69.3 1.0 SSE 1.0 29.91 70 -
12:54 80.1 69.4 1.0 SSE 2.0 29.91 72 -
12:59 79.3 69.4 1.0 SSE 1.0 29.91 72 -
13:04 79.0 69.4 1.0 SSE 1.0 29.90 74 -
13:09 78.4 70.0 1.0 SSE 1.0 29.91 75 -
13:14 78.3 67.8 2.0 SSE 2.0 29.91 72 -
13:19 77.4 67.5   Calm 1.0 29.91 72 -
13:24 77.7 67.8 1.0 SSE 1.0 29.90 72 -
13:29 77.9 67.3 1.0 SSE 1.0 29.90 70 -
13:34 78.1 66.7 1.0 SSE 1.0 29.90 69 -
13:39 79.3 65.7 1.0 SSE 1.0 29.90 65 -
13:44 79.9 66.6 1.0 SSE 1.0 29.90 64 -
13:49 79.9 67.1 1.0 SSE 1.0 29.90 65 -
13:54 80.1 67.1 2.0 SSE 3.0 29.90 65 -
13:59 80.1 67.3 1.0 SSE 1.0 29.90 65 -
14:04 79.9 66.6 2.0 SSE 3.0 29.89 65 -
14:09 79.2 67.5 1.0 SSE 1.0 29.89 68 -
14:14 78.8 66.9   Calm 1.0 29.90 67 -
14:19 78.4 66.6 1.0 SSE 1.0 29.90 67 -
14:24 79.2 66.0 1.0 SSE 1.0 29.89 66 -
14:29 79.9 66.6 1.0 SSE 1.0 29.89 65 -
14:34 80.8 67.5 1.0 SSE 2.0 29.89 64 -
14:39 81.0 68.9 1.0 SSE 1.0 29.89 67 -
14:44 80.4 66.7 2.0 SSE 2.0 29.88 63 -
14:49 80.1 66.9 1.0 SSE 1.0 29.88 65 -
14:54 79.2 66.4 3.0 SSE 3.0 29.88 66 -
14:59 78.6 66.0 2.0 SSE 2.0 29.88 66 -
15:04 77.7 65.5   Calm 1.0 29.88 66 -
15:09 77.5 66.0   Calm   29.88 68 -
15:14 77.7 66.7 1.0 SSE 1.0 29.88 69 -
15:19 77.2 66.7 1.0 SSE 1.0 29.88 71 -
15:24 78.1 66.9 1.0 SSE 1.0 29.88 70 -
15:29 78.8 67.8   Calm 1.0 29.88 69 -
15:34 78.8 68.2 2.0 SSE 2.0 29.87 70 -
15:39 78.8 68.2 1.0 SSE 2.0 29.87 70 -
15:44 78.3 66.0   Calm 1.0 29.87 66 -
15:49 78.6 66.6 2.0 SSE 2.0 29.87 67 -
15:54 78.4 66.9 1.0 SSE 1.0 29.87 68 -
15:59 79.3 66.4 1.0 SSE 1.0 29.87 66 -
16:04 79.3 66.6 2.0 SSE 3.0 29.87 65 -
16:09 78.8 65.3 1.0 SSE 1.0 29.87 65 -
16:14 77.7 65.5 1.0 SSE 1.0 29.86 67 -
16:19 77.4 65.5 1.0 SSE 2.0 29.86 67 -
16:24 77.7 65.1   Calm 1.0 29.86 65 -
16:29 79.3 66.6 1.0 SSE 1.0 29.87 67 -
16:34 79.3 66.6 1.0 SSE 1.0 29.86 65 -
16:39 79.5 66.2 1.0 SSE 1.0 29.86 64 -
16:44 79.0 65.3 1.0 SSE 1.0 29.86 63 -
16:49 78.4 65.3 1.0 SSE 1.0 29.86 64 -
16:54 78.8 65.5 1.0 SSE 1.0 29.86 64 -
16:59 79.5 65.3 1.0 SSE 2.0 29.86 63 -
17:04 79.7 66.4 1.0 SSE 1.0 29.86 64 -
17:09 80.1 66.4 1.0 SSE 1.0 29.86 63 -
17:14 81.0 66.2   Calm 1.0 29.86 63 -
17:19 81.0 65.8 1.0 SSE 1.0 29.86 61 -
17:24 79.5 63.9   Calm   29.86 59 -
17:29 79.3 65.1 1.0 SSE 2.0 29.86 62 -
17:34 79.2 64.4 1.0 SSE 1.0 29.85 61 -
17:39 79.5 64.9 1.0 SSE 1.0 29.85 61 -
17:44 79.3 65.1 1.0 SSE 1.0 29.85 63 -
17:49 78.4 64.4 1.0 SSE 2.0 29.85 62 -
17:54 78.3 63.7 1.0 SSE 1.0 29.85 61 -
17:59 78.1 63.5 1.0 SSE 1.0 29.85 61 -
18:04 77.9 63.9   Calm 1.0 29.85 62 -
18:09 77.7 63.3 1.0 SSE 1.0 29.84 61 -
18:14 77.2 63.1   Calm 1.0 29.84 62 -
18:19 77.2 63.1 1.0 SSE 1.0 29.84 62 -
18:24 77.2 63.7 1.0 SSE 1.0 29.83 63 -
18:29 77.0 63.3 1.0 SSE 1.0 29.84 63 -
18:34 76.8 63.5   Calm 1.0 29.84 64 -
18:39 76.5 63.7   Calm   29.84 65 -
18:44 76.3 63.7 1.0 SSE 1.0 29.84 65 -
18:49 76.3 64.0   Calm   29.84 66 -
18:54 76.1 64.4   Calm   29.84 67 -
18:59 75.9 64.4   Calm   29.84 68 -
19:04 75.7 64.6   Calm   29.84 69 -
19:09 75.2 64.8   Calm   29.84 70 -
19:14 75.0 64.8   Calm   29.84 71 -
19:19 74.5 65.5   Calm   29.84 74 -
19:24 74.3 66.0   Calm   29.84 76 -
19:29 74.1 66.0   Calm   29.84 76 -
19:34 73.9 66.2   Calm   29.84 77 -

Download your copy of this data-set  from WeatherUnderground

Our weather-data as stored at Weather Underground

Original Weather Page

My Ham Radio Page